Huvudsida
METAR-TAF:

METAR-TAF

Flygplatser :

Naval Station Rota

Rota, Spanien

latitud: 36-39N, longitud: 006-21W, höjd: 26 m

Aktuellt väderrapport

Denna rapport gjordes för 11 minuter sedan, klockan 17:00 UTC
Vind 11 kt från väst, varierande mellan sydväst och väst/nordväst
Temperatur 28°C
Fuktighet 58%
Tryck 1018 hPa
Sikt 10 km eller mer
Inga moln under 1 500 m eller inga cumulonimbus

METAR: LERT 071700Z 27011KT 230V300 CAVOK 28/19 Q1018 NOSIG

Tid: 19:11 (17:11 UTC)

Väderprognos

Denna rapport gjordes för 3 timmar och 11 minuter sedan, klockan 14:00 UTC
Prognos gäller från 07 kl. 15 UTC till 08 kl. 15 UTC
Vind 10 kt från väst
Sikt 10 km eller mer
Inga moln under 1 500 m eller inga cumulonimbus
Blir
från 07 kl. 16 UTC till 07 kl. 19 UTC
Vind 5 kt från nord/nordväst
Blir
från 07 kl. 23 UTC till 08 kl. 02 UTC
Vind 12 kt från sydost

TAF: LERT 071400Z 0715/0815 26010KT CAVOK TX34/0813Z TN21/0805Z BECMG 0716/0719 34005KT BECMG 0723/0802 13012KT

Aktuella väderrapporter och prognoser från 4000 flygplatser (METAR- och TAF-rapporter).

De tillgängliga stationerna syns som gula och röda prickar på kartan.

För musen över prickarna för att se namnen på stationerna.

Klicka sedan för att få väderrapporter och prognoser.

För att ändra kartan: Klicka på de gröna knapparna med ett svart kors på för att zooma in; den gröna knappen med ett streck på för att zooma ut; eller på de gröna pilarna för angränsande kartor.


METAR-TAF: